Flight Track Log - Related Links

Times and Time Zones

All times are in EST time to prevent confusion due to time zone crossing. See the AAL993 flight status page for this flight to view local times or setup timezone preferences in your user account.

Time Position Orientation Groundspeed Altitude Reporting Facility
EST Latitude Longitude Course Direction KTS MPH feet Rate Location/Type
Tue 06:44:53 PM 25.7986 -80.2583 207° Southwest 186 214 1,200  Level Miami Center
Tue 06:45:48 PM 25.7808 -80.2117 113° Southeast 208 239 2,600 1,657 Climbing Miami Center
Tue 06:46:38 PM 25.7653 -80.1558 107° East 250 288 4,100 1,473 Climbing Miami Center
Tue 06:47:38 PM 25.7058 -80.1081 144° Southeast 242 278 5,300 1,300 Climbing Miami Center
Tue 06:48:38 PM 25.6319 -80.1431 203° Southwest 223 257 6,700 2,100 Climbing Miami Center
Tue 06:49:00 PM 25.3900 -80.3583 209° Southwest  Level FlightAware Approximate
Tue 06:49:38 PM 25.5600 -80.1847 208° Southwest 247 284 9,500  Level Miami Center
Tue 06:50:00 PM 25.2959 -80.4143 207° Southwest  Level FlightAware Approximate
Tue 06:50:38 PM 25.4817 -80.2264 206° Southwest 288 331 11,600  Level Miami Center
Tue 06:51:38 PM 25.3950 -80.2722 206° Southwest 323 372 14,000 2,550 Climbing Miami Center
Tue 06:52:38 PM 25.3061 -80.3181 205° Southwest 348 400 16,700 2,500 Climbing Miami Center
Tue 06:53:38 PM 25.2111 -80.3658 204° Southwest 360 414 19,000 2,350 Climbing Miami Center
Tue 06:54:38 PM 25.1181 -80.4136 205° Southwest 365 420 21,400 2,200 Climbing Miami Center
Tue 06:55:38 PM 25.0208 -80.4614 204° Southwest 370 426 23,400 1,950 Climbing Miami Center
Tue 06:56:38 PM 24.9192 -80.5133 205° Southwest 386 444 25,300 1,700 Climbing Miami Center
Tue 06:57:38 PM 24.8178 -80.5653 205° Southwest 396 456 26,800 1,400 Climbing Miami Center
Tue 06:58:38 PM 24.7119 -80.6169 204° Southwest 407 468 28,100 1,100 Climbing Miami Center
Tue 06:59:38 PM 24.6125 -80.6642 203° Southwest 419 482 29,000 450 Climbing Miami Center
Tue 07:00:38 PM 24.4919 -80.7289 206° Southwest 431 496 29,000  Level Miami Center
Tue 07:01:38 PM 24.3797 -80.7847 204° Southwest 436 502 29,000  Level Miami Center
Tue 07:02:38 PM 24.2761 -80.8339 203° Southwest 441 507 29,000  Level Miami Center
Tue 07:03:38 PM 24.1639 -80.8894 204° Southwest 446 513 29,000  Level Miami Center
Tue 07:04:38 PM 24.0389 -80.9514 204° Southwest 446 513 29,000  Level Miami Center
Tue 07:05:38 PM 23.9264 -81.0139 207° Southwest 446 513 29,000  Level Miami Center
Tue 07:06:38 PM 23.8103 -81.0644 202° Southwest 446 513 29,000 -50 Level Miami Center
Tue 07:07:38 PM 23.6978 -81.1219 205° Southwest 453 521 28,900  Descending Miami Center
Tue 07:08:38 PM 23.5833 -81.1792 205° Southwest 453 521 29,000 50 Climbing Miami Center
Tue 07:09:38 PM 23.4711 -81.2344 204° Southwest 448 516 29,000  Level Miami Center
Tue 07:10:38 PM 23.3567 -81.2892 204° Southwest 448 516 29,000  Level Miami Center
Tue 07:11:38 PM 23.2422 -81.3464 205° Southwest 448 516 29,000  Level Miami Center
Tue 07:12:38 PM 23.1300 -81.4011 204° Southwest 448 516 29,000  Level Miami Center
Tue 07:13:38 PM 23.0156 -81.4603 205° Southwest 448 516 29,000  Level Miami Center
Tue 07:14:38 PM 22.8953 -81.4986 196° South 448 516 29,000  Level Miami Center
Tue 07:15:38 PM 22.7750 -81.5394 197° South 453 521 29,000  Level Miami Center
Tue 07:16:38 PM 22.6550 -81.5733 195° South 453 521 29,000  Level Miami Center
Tue 07:17:38 PM 22.5367 -81.6208 200° South 453 521 29,000  Level Miami Center
Tue 07:18:38 PM 22.4164 -81.6592 196° South 447 514 29,000  Level Miami Center
Tue 07:19:38 PM 22.2964 -81.6975 196° South 447 514 29,000  Level Miami Center
Tue 07:20:38 PM 22.1783 -81.7333 196° South 447 514 29,000 -50 Level Miami Center
Tue 07:21:38 PM 22.0558 -81.7781 199° South 447 514 28,900 -50 Descending Miami Center
Tue 07:22:38 PM 21.9356 -81.8206 198° South 452 520 28,900 50 Level Miami Center
Tue 07:23:38 PM 21.8108 -81.8631 198° South 457 526 29,000 50 Climbing Miami Center
Tue 07:24:38 PM 21.6906 -81.9031 197° South 457 526 29,000  Level Miami Center
Tue 07:25:38 PM 21.5664 -81.9431 197° South 463 533 29,000  Level Miami Center
Tue 07:26:38 PM 21.4417 -81.9850 197° South 469 540 29,000 -50 Level Miami Center
Tue 07:27:38 PM 21.3194 -82.0228 196° South 469 540 28,900 -50 Descending Miami Center
Tue 07:28:38 PM 21.1975 -82.0558 194° South 459 528 28,900  Level Miami Center
Tue 07:29:38 PM 21.0769 -82.1047 201° Southwest 465 535 28,900 50 Level Miami Center
Tue 07:30:38 PM 20.9547 -82.1422 196° South 465 535 29,000 50 Climbing Miami Center
Tue 07:31:38 PM 20.8322 -82.1883 199° South 465 535 29,000  Level Miami Center
Tue 07:32:38 PM 20.7225 -82.2264 198° South 465 535 29,000  Level Miami Center
Tue 07:33:38 PM 20.6019 -82.2725 200° South 465 535 29,000  Level Miami Center
Tue 07:34:38 PM 20.4794 -82.3164 199° South 465 535 29,000  Level Miami Center
Tue 07:36:38 PM 20.4794 -82.3164 13° North 465 535 29,000  Level Miami Center
Tue 07:38:38 PM 20.4794 -82.3164 13° North 465 535 29,000  Level Miami Center
Tue 07:40:38 PM 20.4794 -82.3164 13° North 465 535 29,000  Level Miami Center
Tue 07:42:38 PM 20.4794 -82.3164 13° North 465 535 29,000  Level Miami Center
Tue 07:44:38 PM 20.4794 -82.3164 13° North 465 535 29,000  Level Miami Center
Tue 07:46:38 PM 20.4794 -82.3164 13° North 465 535 29,000  Level Miami Center
Tue 07:48:38 PM 20.4794 -82.3164 13° North 465 535 29,000  Level Miami Center
Tue 07:50:38 PM 20.4794 -82.3164 13° North 465 535 29,000  Level Miami Center
Tue 07:52:38 PM 20.4794 -82.3164 13° North 465 535 29,000  Level Miami Center
Tue 07:54:38 PM 20.4794 -82.3164 13° North 465 535 29,000  Level Miami Center
Tue 07:56:38 PM 20.4794 -82.3164 13° North 465 535 29,000  Level Miami Center
Tue 07:58:38 PM 20.4794 -82.3164 13° North 465 535 29,000  Level Miami Center
Tue 08:00:38 PM 20.4794 -82.3164 13° North 465 535 29,000  Level Miami Center
Tue 08:02:38 PM 20.4794 -82.3164 13° North 465 535 29,000  Level Miami Center
Tue 08:04:38 PM 20.4794 -82.3164 13° North 465 535 29,000  Level Miami Center
Tue 08:06:38 PM 20.4794 -82.3164 13° North 465 535 29,000  Level Miami Center
Tue 08:08:38 PM 20.4794 -82.3164 13° North 465 535 29,000  Level Miami Center
Tue 08:10:38 PM 20.4794 -82.3164 13° North 465 535 29,000  Level Miami Center
Tue 08:12:38 PM 20.4794 -82.3164 13° North 465 535 29,000  Level Miami Center
Tue 08:14:38 PM 20.4794 -82.3164 13° North 465 535 29,000  Level Miami Center
Tue 08:16:38 PM 20.4794 -82.3164 13° North 465 535 29,000  Level Miami Center
Tue 08:18:38 PM 20.4794 -82.3164 13° North 465 535 29,000  Level Miami Center
Tue 08:20:38 PM 20.4794 -82.3164 13° North 465 535 29,000  Level Miami Center
Tue 08:22:38 PM 20.4794 -82.3164 13° North 465 535 29,000  Level Miami Center
Tue 08:24:38 PM 20.4794 -82.3164 13° North 465 535 29,000  Level Miami Center
Tue 08:26:38 PM 20.4794 -82.3164 13° North 465 535 29,000  Level Miami Center
Tue 08:28:38 PM 20.4794 -82.3164 13° North 465 535 29,000  Level Miami Center
Tue 08:30:38 PM 20.4794 -82.3164 13° North 465 535 29,000  Level Miami Center
Tue 08:32:38 PM 20.4794 -82.3164 13° North 465 535 29,000  Level Miami Center
Tue 08:34:38 PM 20.4794 -82.3164 13° North 465 535 29,000  Level Miami Center
Tue 08:36:38 PM 20.4794 -82.3164 13° North 465 535 29,000  Level Miami Center
Tue 08:38:38 PM 20.4794 -82.3164 13° North 465 535 29,000  Level Miami Center
Tue 08:40:38 PM 20.4794 -82.3164 13° North 465 535 29,000  Level Miami Center
Tue 08:42:38 PM 20.4794 -82.3164 13° North 465 535 29,000  Level Miami Center
Tue 08:44:38 PM 20.4794 -82.3164 13° North 465 535 29,000  Level Miami Center
Tue 08:46:38 PM 20.4794 -82.3164 13° North 465 535 29,000  Level Miami Center
Tue 08:48:38 PM 20.4794 -82.3164 13° North 465 535 29,000  Level Miami Center
Tue 08:50:38 PM 20.4794 -82.3164 13° North 465 535 29,000  Level Miami Center
Tue 08:52:38 PM 20.4794 -82.3164 13° North 465 535 29,000  Level Miami Center
Tue 08:54:38 PM 20.4794 -82.3164 13° North 465 535 29,000  Level Miami Center
Tue 08:56:38 PM 20.4794 -82.3164 13° North 465 535 29,000  Level Miami Center
Tue 08:58:38 PM 20.4794 -82.3164 13° North 465 535 29,000  Level Miami Center
Tue 09:00:38 PM 20.4794 -82.3164 13° North 465 535 29,000  Level Miami Center
Tue 09:02:38 PM 20.4794 -82.3164 13° North 465 535 29,000  Level Miami Center
Tue 09:04:38 PM 20.4794 -82.3164 13° North 465 535 29,000  Level Miami Center
Tue 09:06:38 PM 20.4794 -82.3164 13° North 465 535 29,000  Level Miami Center
Tue 09:08:38 PM 20.4794 -82.3164 13° North 465 535 29,000  Level Miami Center
Tue 09:10:38 PM 20.4794 -82.3164 13° North 465 535 29,000  Level Miami Center
Tue 09:12:38 PM 20.4794 -82.3164 13° North 465 535 29,000  Level Miami Center
Tue 09:14:38 PM 20.4794 -82.3164 13° North 465 535 29,000  Level Miami Center
Tue 09:16:38 PM 20.4794 -82.3164 13° North 465 535 29,000  Level Miami Center
Tue 09:18:38 PM 20.4794 -82.3164 13° North 465 535 29,000  Level Miami Center
Tue 09:20:38 PM 20.4794 -82.3164 13° North 465 535 29,000  Level Miami Center
Tue 09:22:38 PM 20.4794 -82.3164 13° North 465 535 29,000  Level Miami Center
Tue 09:24:38 PM 20.4794 -82.3164 13° North 465 535 29,000  Level Miami Center
Tue 09:26:38 PM 20.4794 -82.3164 13° North 465 535 29,000  Level Miami Center
Tue 09:28:38 PM 20.4794 -82.3164 13° North 465 535 29,000  Level Miami Center
Tue 09:30:38 PM 20.4794 -82.3164 13° North 465 535 29,000  Level Miami Center
Tue 09:32:38 PM 20.4794 -82.3164 13° North 465 535 29,000  Level Miami Center
Tue 09:34:38 PM 20.4794 -82.3164 13° North 465 535 29,000  Level Miami Center
Tue 09:36:38 PM 20.4794 -82.3164 13° North 465 535 29,000  Level Miami Center
Tue 09:38:38 PM 20.4794 -82.3164 13° North 465 535 29,000  Level Miami Center
Tue 09:40:38 PM 20.4794 -82.3164 13° North 465 535 29,000  Level Miami Center
Tue 09:42:38 PM 20.4794 -82.3164 13° North 465 535 29,000  Level Miami Center
Tue 09:44:38 PM 20.4794 -82.3164 13° North 465 535 29,000  Level Miami Center
Tue 09:46:38 PM 20.4794 -82.3164 13° North 465 535 29,000  Level Miami Center
Tue 09:48:38 PM 20.4794 -82.3164 13° North 465 535 29,000  Level Miami Center
Tue 09:50:38 PM 20.4794 -82.3164 13° North 465 535 29,000  Level Miami Center
Tue 09:52:38 PM 20.4794 -82.3164 13° North 465 535 29,000  Level Miami Center
Tue 09:54:38 PM 20.4794 -82.3164 13° North 465 535 29,000  Level Miami Center
Tue 09:56:38 PM 20.4794 -82.3164 13° North 465 535 29,000  Level Miami Center
Tue 09:58:38 PM 20.4794 -82.3164 13° North 465 535 29,000  Level Miami Center
Tue 10:00:38 PM 20.4794 -82.3164 13° North 465 535 29,000  Level Miami Center
Tue 10:02:38 PM 20.4794 -82.3164 13° North 465 535 29,000  Level Miami Center
Tue 10:04:38 PM 20.4794 -82.3164 13° North 465 535 29,000  Level Miami Center
Tue 10:06:38 PM 20.4794 -82.3164 13° North 465 535 29,000  Level Miami Center
Tue 10:08:38 PM 20.4794 -82.3164 13° North 465 535 29,000  Level Miami Center
Tue 10:10:38 PM 20.4794 -82.3164 13° North 465 535 29,000  Level Miami Center
Tue 10:12:38 PM 20.4794 -82.3164 13° North 465 535 29,000  Level Miami Center
Tue 10:14:38 PM 20.4794 -82.3164 13° North 465 535 29,000  Level Miami Center
Tue 10:16:38 PM 20.4794 -82.3164 13° North 465 535 29,000  Level Miami Center
Tue 10:18:38 PM 20.4794 -82.3164 13° North 465 535 29,000  Level Miami Center
Tue 10:20:38 PM 20.4794 -82.3164 13° North 465 535 29,000  Level Miami Center
Tue 10:22:38 PM 20.4794 -82.3164 13° North 465 535 29,000  Level Miami Center
Tue 10:24:38 PM 20.4794 -82.3164 13° North 465 535 29,000  Level Miami Center
Tue 10:26:38 PM 20.4794 -82.3164 13° North 465 535 29,000  Level Miami Center
Tue 10:28:38 PM 20.4794 -82.3164 13° North 465 535 29,000  Level Miami Center
Tue 10:30:38 PM 20.4794 -82.3164 13° North 465 535 29,000  Level Miami Center
Tue 10:32:38 PM 20.4794 -82.3164 13° North 465 535 29,000  Level Miami Center
Tue 10:34:38 PM 20.4794 -82.3164 13° North 465 535 29,000  Level Miami Center
Tue 10:36:38 PM 20.4794 -82.3164 13° North 465 535 29,000  Level Miami Center
Tue 10:38:38 PM 20.4794 -82.3164 13° North 465 535 29,000  Level Miami Center
Tue 10:40:38 PM 20.4794 -82.3164 13° North 465 535 29,000  Level Miami Center
Tue 10:42:38 PM 20.4794 -82.3164 13° North 465 535 29,000  Level Miami Center
Tue 10:44:38 PM 20.4794 -82.3164 13° North 465 535 29,000  Level Miami Center
Tue 10:46:38 PM 20.4794 -82.3164 13° North 465 535 29,000  Level Miami Center
Tue 10:48:38 PM 20.4794 -82.3164 13° North 465 535 29,000  Level Miami Center
Tue 10:50:38 PM 20.4794 -82.3164 13° North 465 535 29,000  Level Miami Center
Tue 10:52:38 PM 20.4794 -82.3164 13° North 465 535 29,000  Level Miami Center
Tue 10:54:38 PM 20.4794 -82.3164 13° North 465 535 29,000  Level Miami Center
Tue 10:56:38 PM 20.4794 -82.3164 13° North 465 535 29,000  Level Miami Center
Tue 10:58:38 PM 20.4794 -82.3164 13° North 465 535 29,000  Level Miami Center
Tue 11:00:38 PM 20.4794 -82.3164 13° North 465 535 29,000  Level Miami Center
Tue 11:02:38 PM 20.4794 -82.3164 13° North 465 535 29,000  Level Miami Center
Tue 11:04:38 PM 20.4794 -82.3164 13° North 465 535 29,000  Level Miami Center
Tue 11:06:38 PM 20.4794 -82.3164 13° North 465 535 29,000  Level Miami Center
Tue 11:08:38 PM 20.4794 -82.3164 13° North 465 535 29,000  Level Miami Center
Tue 11:10:38 PM 20.4794 -82.3164 13° North 465 535 29,000  Level Miami Center
Tue 11:12:38 PM 20.4794 -82.3164 13° North 465 535 29,000  Level Miami Center
Tue 11:14:38 PM 20.4794 -82.3164 13° North 465 535 29,000  Level Miami Center
Tue 11:16:38 PM 20.4794 -82.3164 13° North 465 535 29,000  Level Miami Center
Tue 11:18:00 PM 20.3225 -82.3510 192° South  Level FlightAware Approximate
Tue 11:25:00 PM 19.5643 -82.6644 205° Southwest  Level FlightAware Approximate
Tue 11:26:00 PM 19.4578 -82.7166 205° Southwest  Level FlightAware Approximate
Tue 11:27:00 PM 19.3513 -82.7687 205° Southwest  Level FlightAware Approximate
Tue 11:28:00 PM 19.2448 -82.8208 205° Southwest  Level FlightAware Approximate
Tue 11:29:00 PM 19.1383 -82.8728 205° Southwest  Level FlightAware Approximate
Tue 11:30:00 PM 19.0318 -82.9247 205° Southwest  Level FlightAware Approximate
Tue 11:31:00 PM 18.9253 -82.9765 205° Southwest  Level FlightAware Approximate
Tue 11:32:00 PM 18.8187 -83.0283 205° Southwest  Level FlightAware Approximate
Tue 11:33:00 PM 18.7121 -83.0800 205° Southwest  Level FlightAware Approximate
Tue 11:34:00 PM 18.6056 -83.1317 205° Southwest  Level FlightAware Approximate
Tue 11:35:00 PM 18.4991 -83.1835 205° Southwest  Level FlightAware Approximate
Tue 11:36:00 PM 18.3928 -83.2359 205° Southwest  Level FlightAware Approximate
Tue 11:37:00 PM 18.2866 -83.2882 205° Southwest  Level FlightAware Approximate
Tue 11:38:00 PM 18.1803 -83.3404 205° Southwest  Level FlightAware Approximate
Tue 11:39:00 PM 18.0740 -83.3925 205° Southwest  Level FlightAware Approximate
Tue 11:40:00 PM 17.9677 -83.4446 205° Southwest  Level FlightAware Approximate
Tue 11:41:00 PM 17.8614 -83.4966 205° Southwest  Level FlightAware Approximate
Tue 11:42:00 PM 17.7550 -83.5486 205° Southwest  Level FlightAware Approximate
Tue 11:43:00 PM 17.6487 -83.6005 205° Southwest  Level FlightAware Approximate
Tue 11:44:00 PM 17.5423 -83.6523 205° Southwest  Level FlightAware Approximate
Tue 11:45:00 PM 17.4359 -83.7041 205° Southwest  Level FlightAware Approximate
Tue 11:46:00 PM 17.3295 -83.7558 205° Southwest  Level FlightAware Approximate
Tue 11:47:00 PM 17.2231 -83.8075 205° Southwest  Level FlightAware Approximate
Tue 11:48:00 PM 17.1167 -83.8591 205° Southwest  Level FlightAware Approximate
Tue 11:49:00 PM 17.0102 -83.9104 205° Southwest  Level FlightAware Approximate
Tue 11:50:00 PM 16.9036 -83.9614 205° Southwest  Level FlightAware Approximate
Tue 11:51:00 PM 16.7969 -84.0124 205° Southwest  Level FlightAware Approximate
Tue 11:52:00 PM 16.6903 -84.0633 205° Southwest  Level FlightAware Approximate
Tue 11:53:00 PM 16.5836 -84.1142 205° Southwest  Level FlightAware Approximate
Tue 11:54:00 PM 16.4769 -84.1650 205° Southwest  Level FlightAware Approximate
Tue 11:55:00 PM 16.3702 -84.2158 205° Southwest  Level FlightAware Approximate
Tue 11:56:00 PM 16.2637 -84.2668 205° Southwest  Level FlightAware Approximate
Tue 11:57:00 PM 16.1572 -84.3180 205° Southwest  Level FlightAware Approximate
Tue 11:58:00 PM 16.0507 -84.3691 205° Southwest  Level FlightAware Approximate
Tue 11:59:00 PM 15.9441 -84.4202 205° Southwest  Level FlightAware Approximate
Wed 12:00:00 AM 15.8376 -84.4712 205° Southwest  Level FlightAware Approximate
Wed 12:01:00 AM 15.7311 -84.5221 205° Southwest  Level FlightAware Approximate
Wed 12:02:00 AM 15.6245 -84.5730 205° Southwest  Level FlightAware Approximate
Wed 12:03:00 AM 15.5180 -84.6238 205° Southwest  Level FlightAware Approximate
Wed 12:04:00 AM 15.4114 -84.6746 205° Southwest  Level FlightAware Approximate
Wed 12:05:00 AM 15.3048 -84.7254 205° Southwest  Level FlightAware Approximate
Wed 12:06:00 AM 15.1982 -84.7761 205° Southwest  Level FlightAware Approximate
Wed 12:07:00 AM 15.0916 -84.8267 205° Southwest  Level FlightAware Approximate
Wed 12:08:00 AM 14.9850 -84.8773 205° Southwest  Level FlightAware Approximate
Wed 12:09:00 AM 14.8783 -84.9278 205° Southwest  Level FlightAware Approximate
Wed 12:10:00 AM 14.7718 -84.9786 205° Southwest  Level FlightAware Approximate
Wed 12:11:00 AM 14.6653 -85.0293 205° Southwest  Level FlightAware Approximate
Wed 12:12:00 AM 14.5587 -85.0800 205° Southwest  Level FlightAware Approximate
Wed 12:13:00 AM 14.4522 -85.1306 205° Southwest  Level FlightAware Approximate
Wed 12:14:00 AM 14.3456 -85.1812 205° Southwest  Level FlightAware Approximate
Wed 12:15:00 AM 14.2391 -85.2317 205° Southwest  Level FlightAware Approximate
Wed 12:16:00 AM 14.1325 -85.2822 205° Southwest  Level FlightAware Approximate
Wed 12:17:00 AM 14.0259 -85.3326 205° Southwest  Level FlightAware Approximate
Wed 12:18:00 AM 13.9193 -85.3830 205° Southwest  Level FlightAware Approximate
Wed 12:19:00 AM 13.8134 -85.4350 206° Southwest  Level FlightAware Approximate
Wed 12:20:00 AM 13.7060 -85.4831 200° South  Level FlightAware Approximate
Wed 12:21:00 AM 13.5968 -85.5266 206° Southwest  Level FlightAware Approximate
Wed 12:22:00 AM 13.4913 -85.5794 206° Southwest  Level FlightAware Approximate
Wed 12:23:00 AM 13.3858 -85.6321 206° Southwest  Level FlightAware Approximate
Wed 12:24:00 AM 13.2789 -85.6816 203° Southwest  Level FlightAware Approximate
Wed 12:25:00 AM 13.1713 -85.7295 203° Southwest  Level FlightAware Approximate
Wed 12:26:00 AM 13.0636 -85.7773 203° Southwest  Level FlightAware Approximate
Wed 12:27:00 AM 12.9546 -85.8215 201° Southwest  Level FlightAware Approximate
Wed 12:28:00 AM 12.8459 -85.8667 203° Southwest  Level FlightAware Approximate
Wed 12:29:00 AM 12.7383 -85.9145 203° Southwest  Level FlightAware Approximate
Wed 12:30:00 AM 12.6297 -85.9599 202° Southwest  Level FlightAware Approximate
Wed 12:31:00 AM 12.5210 -86.0050 201° Southwest  Level FlightAware Approximate
Wed 12:32:00 AM 12.4117 -86.0487 201° Southwest  Level FlightAware Approximate

Login

Don't have an account? Register now (free) for customized features, flight alerts, and more!